createdAt,value
2018-12-20T00:01:01.895Z,67.04
2018-12-20T00:06:07.162Z,66.39
2018-12-20T00:11:13.914Z,68.15
2018-12-20T00:16:19.073Z,68.07
2018-12-20T00:21:24.215Z,67.93
2018-12-20T00:26:29.199Z,67.03
2018-12-20T00:31:34.151Z,69.02
2018-12-20T00:36:39.027Z,67.75
2018-12-20T00:41:43.880Z,67.16
2018-12-20T00:46:48.829Z,66.79
2018-12-20T00:57:04.204Z,68.74
2018-12-20T01:02:09.369Z,67.77
2018-12-20T01:07:14.627Z,68.43
2018-12-20T01:12:19.708Z,68.29
2018-12-20T01:17:26.725Z,68.47
2018-12-20T01:22:31.678Z,68.20
2018-12-20T01:27:37.021Z,68.72
2018-12-20T01:32:42.015Z,67.97
2018-12-20T01:37:46.882Z,68.00
2018-12-20T01:42:52.412Z,68.36
2018-12-20T01:47:57.268Z,68.28
2018-12-20T01:53:03.300Z,67.87
2018-12-20T01:58:08.521Z,67.89
2018-12-20T02:03:13.398Z,67.55
2018-12-20T02:08:18.413Z,68.06
2018-12-20T02:18:33.487Z,68.67
2018-12-20T02:23:39.083Z,68.25
2018-12-20T02:28:44.048Z,68.53
2018-12-20T02:33:49.342Z,69.24
2018-12-20T02:38:54.533Z,68.63
2018-12-20T02:43:59.557Z,70.41
2018-12-20T02:49:05.373Z,70.58
2018-12-20T02:54:10.465Z,70.88
2018-12-20T02:59:15.729Z,70.21
2018-12-20T03:04:21.937Z,69.08
2018-12-20T03:09:26.985Z,69.47
2018-12-20T03:14:31.976Z,68.88
2018-12-20T03:19:37.599Z,69.37
2018-12-20T03:24:42.803Z,68.84
2018-12-20T03:29:47.973Z,69.07
2018-12-20T03:34:53.270Z,69.54
2018-12-20T03:39:58.491Z,69.05
2018-12-20T03:45:03.570Z,68.87
2018-12-20T03:50:12.296Z,69.55
2018-12-20T03:55:17.808Z,68.14
2018-12-20T04:00:23.731Z,68.79
2018-12-20T04:05:28.678Z,68.72
2018-12-20T04:10:33.663Z,68.84
2018-12-20T04:15:38.850Z,68.87
2018-12-20T04:20:43.958Z,68.87
2018-12-20T04:25:48.983Z,68.34
2018-12-20T04:30:53.878Z,69.72
2018-12-20T04:35:59.458Z,68.68
2018-12-20T04:41:05.662Z,69.04
2018-12-20T04:46:10.681Z,69.32
2018-12-20T04:51:16.963Z,68.95
2018-12-20T04:56:22.272Z,68.36
2018-12-20T05:01:27.591Z,68.15
2018-12-20T05:06:33.705Z,67.94
2018-12-20T05:11:38.561Z,68.60
2018-12-20T05:16:43.899Z,68.08
2018-12-20T05:21:49.061Z,68.27
2018-12-20T05:26:58.389Z,68.42
2018-12-20T05:32:03.658Z,68.91
2018-12-20T05:37:08.834Z,68.25
2018-12-20T05:42:13.976Z,68.62
2018-12-20T05:47:19.269Z,69.73
2018-12-20T05:52:24.617Z,70.01
2018-12-20T05:57:29.481Z,69.83
2018-12-20T06:02:34.626Z,69.41
2018-12-20T06:07:40.587Z,68.15
2018-12-20T06:12:45.626Z,68.20
2018-12-20T06:17:51.112Z,68.70
2018-12-20T06:28:06.239Z,69.11
2018-12-20T06:33:11.127Z,69.15
2018-12-20T06:38:15.950Z,71.05
2018-12-20T06:43:20.960Z,70.27
2018-12-20T06:48:25.730Z,70.03
2018-12-20T06:53:30.634Z,69.94
2018-12-20T06:58:35.486Z,70.19
2018-12-20T07:03:40.952Z,69.63
2018-12-20T07:08:45.785Z,67.79
2018-12-20T07:13:50.652Z,67.67
2018-12-20T07:18:55.535Z,68.43
2018-12-20T07:24:00.379Z,69.96
2018-12-20T07:29:05.650Z,70.96
2018-12-20T07:34:10.568Z,70.58
2018-12-20T07:39:15.436Z,71.31
2018-12-20T07:44:21.644Z,70.90
2018-12-20T07:49:26.498Z,70.81
2018-12-20T07:54:31.340Z,70.00
2018-12-20T07:59:36.302Z,68.26
2018-12-20T08:04:41.237Z,70.03
2018-12-20T08:09:46.061Z,69.73
2018-12-20T08:14:51.005Z,69.86
2018-12-20T08:19:55.875Z,69.39
2018-12-20T08:25:01.031Z,69.16
2018-12-20T08:30:09.539Z,69.35
2018-12-20T08:35:14.495Z,69.25
2018-12-20T08:40:19.410Z,69.63
2018-12-20T08:45:24.861Z,69.97
2018-12-20T08:50:30.958Z,69.37
2018-12-20T08:55:36.536Z,69.74
2018-12-20T09:00:41.761Z,70.74
2018-12-20T09:05:46.867Z,70.89
2018-12-20T09:10:51.705Z,70.83
2018-12-20T09:15:56.882Z,71.23
2018-12-20T09:21:02.911Z,70.11
2018-12-20T09:26:07.849Z,71.08
2018-12-20T09:31:13.285Z,71.71
2018-12-20T09:36:18.190Z,69.82
2018-12-20T09:41:23.798Z,70.64
2018-12-20T09:46:28.779Z,70.94
2018-12-20T09:51:33.729Z,70.86
2018-12-20T09:56:39.383Z,69.93
2018-12-20T10:01:46.510Z,71.47
2018-12-20T10:06:52.039Z,70.83
2018-12-20T10:11:57.004Z,69.68
2018-12-20T10:17:02.344Z,70.51
2018-12-20T10:22:08.000Z,70.58
2018-12-20T10:27:13.070Z,71.87
2018-12-20T10:32:17.990Z,72.41
2018-12-20T10:37:22.845Z,73.12
2018-12-20T10:42:27.700Z,72.47
2018-12-20T10:47:33.339Z,72.86
2018-12-20T10:52:38.727Z,71.70
2018-12-20T10:57:43.679Z,70.57
2018-12-20T11:04:59.179Z,69.25
2018-12-20T11:10:09.798Z,69.63
2018-12-20T11:15:15.861Z,70.77
2018-12-20T11:20:21.360Z,69.82
2018-12-20T11:25:27.205Z,69.84
2018-12-20T11:30:34.174Z,70.44
2018-12-20T11:35:39.054Z,70.60
2018-12-20T11:40:44.031Z,70.76
2018-12-20T11:45:49.323Z,70.75
2018-12-20T11:50:55.995Z,70.43
2018-12-20T11:56:01.242Z,70.70
2018-12-20T12:01:07.741Z,70.06
2018-12-20T12:06:14.319Z,68.16
2018-12-20T12:11:20.454Z,68.84
2018-12-20T12:16:25.738Z,68.70
2018-12-20T12:21:30.625Z,70.61
2018-12-20T12:26:36.200Z,70.06
2018-12-20T12:31:41.076Z,70.35
2018-12-20T12:36:46.638Z,70.49
2018-12-20T12:41:51.569Z,69.98
2018-12-20T12:46:56.486Z,70.19
2018-12-20T12:52:01.359Z,68.97
2018-12-20T12:57:07.164Z,67.39
2018-12-20T13:02:12.414Z,67.59
2018-12-20T13:07:17.673Z,68.18
2018-12-20T13:12:22.832Z,67.86
2018-12-20T13:17:27.683Z,68.68
2018-12-20T13:22:32.737Z,67.56
2018-12-20T13:27:37.583Z,67.63
2018-12-20T13:32:42.421Z,67.78
2018-12-20T13:37:47.361Z,68.08
2018-12-20T13:42:52.836Z,68.01
2018-12-20T13:47:57.653Z,68.52
2018-12-20T13:58:18.981Z,67.85
2018-12-20T14:03:26.011Z,67.16
2018-12-20T14:08:30.917Z,67.59
2018-12-20T14:13:35.779Z,67.29
2018-12-20T14:18:41.458Z,66.97
2018-12-20T14:23:46.884Z,66.29
2018-12-20T14:28:52.755Z,66.10
2018-12-20T14:33:58.365Z,67.08
2018-12-20T14:39:04.866Z,67.57
2018-12-20T14:44:10.870Z,66.77
2018-12-20T14:49:15.771Z,66.01
2018-12-20T14:54:20.746Z,66.68
2018-12-20T15:04:35.829Z,66.45
2018-12-20T15:09:41.530Z,66.54
2018-12-20T15:14:46.618Z,65.95
2018-12-20T15:19:51.601Z,66.54
2018-12-20T15:24:56.485Z,66.69
2018-12-20T15:30:11.099Z,65.50
2018-12-20T15:35:16.069Z,66.75
2018-12-20T15:40:21.283Z,67.36
2018-12-20T15:45:26.358Z,67.76
2018-12-20T15:50:33.841Z,67.00
2018-12-20T15:55:39.772Z,66.77
2018-12-20T16:00:45.074Z,67.20
2018-12-20T16:05:50.899Z,66.48
2018-12-20T16:10:55.848Z,68.69
2018-12-20T16:16:01.018Z,68.21
2018-12-20T16:21:07.014Z,68.56
2018-12-20T16:26:13.572Z,68.02
2018-12-20T16:31:19.204Z,67.61
2018-12-20T16:36:25.730Z,68.23
2018-12-20T16:41:30.831Z,68.06
2018-12-20T16:46:35.978Z,68.14
2018-12-20T16:51:41.659Z,68.30
2018-12-20T16:56:46.620Z,68.00
2018-12-20T17:07:02.864Z,67.39
2018-12-20T17:12:07.772Z,68.51
2018-12-20T17:17:14.461Z,67.96
2018-12-20T17:22:19.711Z,68.13
2018-12-20T17:27:26.332Z,68.53
2018-12-20T17:32:32.971Z,67.73
2018-12-20T17:37:40.633Z,67.50
2018-12-20T17:42:46.144Z,67.77
2018-12-20T17:47:51.784Z,67.67
2018-12-20T17:52:57.330Z,67.71
2018-12-20T17:58:03.543Z,67.98
2018-12-20T18:03:08.845Z,68.14
2018-12-20T18:08:16.611Z,68.65
2018-12-20T18:13:22.739Z,68.01
2018-12-20T18:18:27.916Z,68.17
2018-12-20T18:23:33.528Z,67.19
2018-12-20T18:28:39.467Z,68.12
2018-12-20T18:33:45.749Z,68.06
2018-12-20T18:38:51.227Z,68.40
2018-12-20T18:43:56.246Z,67.83
2018-12-20T18:49:06.371Z,69.26
2018-12-20T18:54:12.918Z,69.04
2018-12-20T18:59:17.993Z,69.60
2018-12-20T19:04:24.101Z,70.10
2018-12-20T19:09:29.560Z,70.63
2018-12-20T19:14:35.574Z,70.49
2018-12-20T19:19:40.800Z,70.11
2018-12-20T19:24:50.634Z,69.62
2018-12-20T19:29:55.804Z,69.42
2018-12-20T19:35:05.926Z,68.17
2018-12-20T19:40:13.587Z,67.87
2018-12-20T19:45:21.417Z,67.40
2018-12-20T19:50:29.985Z,66.81
2018-12-20T19:55:35.782Z,66.76
2018-12-20T20:00:43.943Z,66.98
2018-12-20T20:05:50.508Z,65.97
2018-12-20T20:10:56.019Z,66.76
2018-12-20T20:16:03.568Z,66.27
2018-12-20T20:21:10.412Z,66.27
2018-12-20T20:26:15.558Z,66.83
2018-12-20T20:31:21.687Z,65.62
2018-12-20T20:36:28.498Z,65.84
2018-12-20T20:41:38.368Z,65.45
2018-12-20T20:46:46.270Z,65.38
2018-12-20T20:51:52.729Z,66.20
2018-12-20T20:57:00.984Z,66.18
2018-12-20T21:02:09.551Z,65.92
2018-12-20T21:07:20.971Z,65.79
2018-12-20T21:12:28.776Z,64.70
2018-12-20T21:17:35.022Z,65.81
2018-12-20T21:22:40.926Z,64.71
2018-12-20T21:27:46.362Z,65.17
2018-12-20T21:32:52.600Z,66.53
2018-12-20T21:37:58.126Z,65.25
2018-12-20T21:43:04.652Z,65.71
2018-12-20T21:48:09.614Z,66.29
2018-12-20T21:53:15.423Z,66.79
2018-12-20T21:58:20.904Z,66.45
2018-12-20T22:03:26.498Z,65.84
2018-12-20T22:08:32.667Z,65.44
2018-12-20T22:13:37.705Z,65.56
2018-12-20T22:18:42.770Z,65.45
2018-12-20T22:23:48.538Z,64.54
2018-12-20T22:28:55.029Z,64.38
2018-12-20T22:34:00.027Z,64.61
2018-12-20T22:39:08.034Z,63.91
2018-12-20T22:44:13.391Z,64.77
2018-12-20T22:49:18.203Z,64.26
2018-12-20T22:54:23.156Z,64.47
2018-12-20T22:59:28.936Z,64.40
2018-12-20T23:04:34.858Z,64.31
2018-12-20T23:09:40.127Z,64.55
2018-12-20T23:14:46.460Z,64.57
2018-12-20T23:19:52.762Z,65.17
2018-12-20T23:24:57.595Z,64.17
2018-12-20T23:30:05.811Z,66.28
2018-12-20T23:35:11.576Z,65.61
2018-12-20T23:40:17.615Z,65.62
2018-12-20T23:45:23.112Z,66.08
2018-12-20T23:50:28.019Z,65.35
2018-12-20T23:55:34.141Z,65.38
